sensor_id;sensor_type;location;lat;lon;timestamp;temperature;humidity
7562;DHT22;3822;48.784;9.174;2022-07-12T00:00:26;22.10;69.50
7562;DHT22;3822;48.784;9.174;2022-07-12T00:02:52;22.10;69.60
7562;DHT22;3822;48.784;9.174;2022-07-12T00:05:19;22.10;69.70
7562;DHT22;3822;48.784;9.174;2022-07-12T00:07:45;22.10;69.80
7562;DHT22;3822;48.784;9.174;2022-07-12T00:10:12;22.10;70.00
7562;DHT22;3822;48.784;9.174;2022-07-12T00:12:39;22.00;70.00
7562;DHT22;3822;48.784;9.174;2022-07-12T00:15:07;22.00;70.20
7562;DHT22;3822;48.784;9.174;2022-07-12T00:17:33;21.90;70.30
7562;DHT22;3822;48.784;9.174;2022-07-12T00:20:00;21.80;70.50
7562;DHT22;3822;48.784;9.174;2022-07-12T00:22:27;21.70;70.80
7562;DHT22;3822;48.784;9.174;2022-07-12T00:24:55;21.70;71.00
7562;DHT22;3822;48.784;9.174;2022-07-12T00:27:21;21.60;71.00
7562;DHT22;3822;48.784;9.174;2022-07-12T00:29:47;21.60;71.20
7562;DHT22;3822;48.784;9.174;2022-07-12T00:32:14;21.70;71.50
7562;DHT22;3822;48.784;9.174;2022-07-12T00:34:40;21.70;71.60
7562;DHT22;3822;48.784;9.174;2022-07-12T00:37:07;22.40;72.40
7562;DHT22;3822;48.784;9.174;2022-07-12T00:39:33;21.70;71.80
7562;DHT22;3822;48.784;9.174;2022-07-12T00:42:00;21.70;71.80
7562;DHT22;3822;48.784;9.174;2022-07-12T00:44:26;21.70;71.80
7562;DHT22;3822;48.784;9.174;2022-07-12T00:46:53;21.70;71.80
7562;DHT22;3822;48.784;9.174;2022-07-12T00:49:20;21.70;71.90
7562;DHT22;3822;48.784;9.174;2022-07-12T00:51:49;21.70;72.00
7562;DHT22;3822;48.784;9.174;2022-07-12T00:54:17;21.70;72.20
7562;DHT22;3822;48.784;9.174;2022-07-12T00:56:44;21.70;72.40
7562;DHT22;3822;48.784;9.174;2022-07-12T00:59:13;21.60;72.50
7562;DHT22;3822;48.784;9.174;2022-07-12T01:01:41;21.60;72.60
7562;DHT22;3822;48.784;9.174;2022-07-12T01:04:08;21.60;72.80
7562;DHT22;3822;48.784;9.174;2022-07-12T01:06:35;21.60;72.80
7562;DHT22;3822;48.784;9.174;2022-07-12T01:09:02;21.60;72.90
7562;DHT22;3822;48.784;9.174;2022-07-12T01:11:29;21.60;73.10
7562;DHT22;3822;48.784;9.174;2022-07-12T01:13:55;21.60;73.30
7562;DHT22;3822;48.784;9.174;2022-07-12T01:16:23;21.60;73.50
7562;DHT22;3822;48.784;9.174;2022-07-12T01:18:51;21.60;73.70
7562;DHT22;3822;48.784;9.174;2022-07-12T01:21:19;21.50;73.70
7562;DHT22;3822;48.784;9.174;2022-07-12T01:23:49;21.50;74.00
7562;DHT22;3822;48.784;9.174;2022-07-12T01:26:16;21.50;74.20
7562;DHT22;3822;48.784;9.174;2022-07-12T01:28:42;21.40;74.20
7562;DHT22;3822;48.784;9.174;2022-07-12T01:31:09;21.40;74.20
7562;DHT22;3822;48.784;9.174;2022-07-12T01:33:36;21.40;74.40
7562;DHT22;3822;48.784;9.174;2022-07-12T01:36:03;21.40;74.60
7562;DHT22;3822;48.784;9.174;2022-07-12T01:38:30;21.40;74.80
7562;DHT22;3822;48.784;9.174;2022-07-12T01:40:57;21.40;74.90
7562;DHT22;3822;48.784;9.174;2022-07-12T01:43:24;21.40;75.00
7562;DHT22;3822;48.784;9.174;2022-07-12T01:45:51;21.40;75.00
7562;DHT22;3822;48.784;9.174;2022-07-12T01:48:17;21.30;75.00
7562;DHT22;3822;48.784;9.174;2022-07-12T01:50:45;21.30;75.20
7562;DHT22;3822;48.784;9.174;2022-07-12T01:53:11;21.20;75.20
7562;DHT22;3822;48.784;9.174;2022-07-12T01:55:40;21.20;75.30
7562;DHT22;3822;48.784;9.174;2022-07-12T01:58:07;21.20;75.50
7562;DHT22;3822;48.784;9.174;2022-07-12T02:00:33;21.20;75.70
7562;DHT22;3822;48.784;9.174;2022-07-12T02:03:00;21.10;75.80
7562;DHT22;3822;48.784;9.174;2022-07-12T02:05:26;21.10;76.10
7562;DHT22;3822;48.784;9.174;2022-07-12T02:07:54;21.00;76.20
7562;DHT22;3822;48.784;9.174;2022-07-12T02:10:21;21.00;76.40
7562;DHT22;3822;48.784;9.174;2022-07-12T02:12:47;21.00;76.50
7562;DHT22;3822;48.784;9.174;2022-07-12T02:15:14;21.00;76.60
7562;DHT22;3822;48.784;9.174;2022-07-12T02:17:40;21.00;76.80
7562;DHT22;3822;48.784;9.174;2022-07-12T02:20:09;21.00;76.90
7562;DHT22;3822;48.784;9.174;2022-07-12T02:22:38;21.00;77.00
7562;DHT22;3822;48.784;9.174;2022-07-12T02:25:05;20.90;77.00
7562;DHT22;3822;48.784;9.174;2022-07-12T02:27:32;20.90;77.00
7562;DHT22;3822;48.784;9.174;2022-07-12T02:29:58;20.90;77.20
7562;DHT22;3822;48.784;9.174;2022-07-12T02:32:25;20.90;77.30
7562;DHT22;3822;48.784;9.174;2022-07-12T02:34:51;20.90;77.40
7562;DHT22;3822;48.784;9.174;2022-07-12T02:37:18;20.90;77.60
7562;DHT22;3822;48.784;9.174;2022-07-12T02:39:44;20.80;77.60
7562;DHT22;3822;48.784;9.174;2022-07-12T02:42:10;20.80;77.70
7562;DHT22;3822;48.784;9.174;2022-07-12T02:44:37;20.80;77.80
7562;DHT22;3822;48.784;9.174;2022-07-12T02:47:03;20.80;78.00
7562;DHT22;3822;48.784;9.174;2022-07-12T02:49:30;20.70;78.00
7562;DHT22;3822;48.784;9.174;2022-07-12T02:51:56;20.70;78.10
7562;DHT22;3822;48.784;9.174;2022-07-12T02:54:23;20.70;78.30
7562;DHT22;3822;48.784;9.174;2022-07-12T02:56:49;20.70;78.40
7562;DHT22;3822;48.784;9.174;2022-07-12T02:59:16;20.60;78.40
7562;DHT22;3822;48.784;9.174;2022-07-12T03:01:42;20.60;78.50
7562;DHT22;3822;48.784;9.174;2022-07-12T03:04:09;20.60;78.70
7562;DHT22;3822;48.784;9.174;2022-07-12T03:06:36;20.60;78.80
7562;DHT22;3822;48.784;9.174;2022-07-12T03:09:03;20.60;79.00
7562;DHT22;3822;48.784;9.174;2022-07-12T03:11:29;20.60;79.10
7562;DHT22;3822;48.784;9.174;2022-07-12T03:13:56;20.50;79.10
7562;DHT22;3822;48.784;9.174;2022-07-12T03:16:22;20.50;79.20
7562;DHT22;3822;48.784;9.174;2022-07-12T03:18:49;20.50;79.30
7562;DHT22;3822;48.784;9.174;2022-07-12T03:21:15;20.50;79.50
7562;DHT22;3822;48.784;9.174;2022-07-12T03:23:42;20.50;79.60
7562;DHT22;3822;48.784;9.174;2022-07-12T03:26:10;20.50;79.70
7562;DHT22;3822;48.784;9.174;2022-07-12T03:28:36;20.40;79.70
7562;DHT22;3822;48.784;9.174;2022-07-12T03:31:03;20.40;79.80
7562;DHT22;3822;48.784;9.174;2022-07-12T03:33:29;20.40;79.90
7562;DHT22;3822;48.784;9.174;2022-07-12T03:35:56;20.40;80.00
7562;DHT22;3822;48.784;9.174;2022-07-12T03:38:22;20.40;80.00
7562;DHT22;3822;48.784;9.174;2022-07-12T03:40:51;20.40;80.10
7562;DHT22;3822;48.784;9.174;2022-07-12T03:43:18;20.30;80.10
7562;DHT22;3822;48.784;9.174;2022-07-12T03:45:45;20.30;80.20
7562;DHT22;3822;48.784;9.174;2022-07-12T03:48:12;20.30;80.40
7562;DHT22;3822;48.784;9.174;2022-07-12T03:50:38;20.30;80.40
7562;DHT22;3822;48.784;9.174;2022-07-12T03:53:06;20.30;81.20
7562;DHT22;3822;48.784;9.174;2022-07-12T03:55:51;20.20;80.50
7562;DHT22;3822;48.784;9.174;2022-07-12T03:58:17;20.30;80.70
7562;DHT22;3822;48.784;9.174;2022-07-12T04:00:44;20.20;80.70
7562;DHT22;3822;48.784;9.174;2022-07-12T04:03:10;20.20;80.90
7562;DHT22;3822;48.784;9.174;2022-07-12T04:05:38;20.20;80.90
7562;DHT22;3822;48.784;9.174;2022-07-12T04:08:05;20.20;81.10
7562;DHT22;3822;48.784;9.174;2022-07-12T04:10:32;20.20;81.10
7562;DHT22;3822;48.784;9.174;2022-07-12T04:12:58;20.20;81.20
7562;DHT22;3822;48.784;9.174;2022-07-12T04:15:25;20.30;81.50
7562;DHT22;3822;48.784;9.174;2022-07-12T04:17:52;20.30;81.50
7562;DHT22;3822;48.784;9.174;2022-07-12T04:20:18;20.30;81.30
7562;DHT22;3822;48.784;9.174;2022-07-12T04:22:45;20.40;81.20
7562;DHT22;3822;48.784;9.174;2022-07-12T04:25:12;20.30;81.10
7562;DHT22;3822;48.784;9.174;2022-07-12T04:27:38;20.40;81.10
7562;DHT22;3822;48.784;9.174;2022-07-12T04:30:06;20.40;81.00
7562;DHT22;3822;48.784;9.174;2022-07-12T04:32:33;20.40;81.10
7562;DHT22;3822;48.784;9.174;2022-07-12T04:35:00;20.30;80.90
7562;DHT22;3822;48.784;9.174;2022-07-12T04:37:26;20.30;80.90
7562;DHT22;3822;48.784;9.174;2022-07-12T04:39:52;20.30;81.00
7562;DHT22;3822;48.784;9.174;2022-07-12T04:42:19;20.30;81.00
7562;DHT22;3822;48.784;9.174;2022-07-12T04:44:47;20.30;81.10
7562;DHT22;3822;48.784;9.174;2022-07-12T04:47:13;20.30;81.20
7562;DHT22;3822;48.784;9.174;2022-07-12T04:49:40;20.30;81.20
7562;DHT22;3822;48.784;9.174;2022-07-12T04:52:07;20.40;81.50
7562;DHT22;3822;48.784;9.174;2022-07-12T04:54:33;20.40;81.60
7562;DHT22;3822;48.784;9.174;2022-07-12T04:57:00;20.40;81.60
7562;DHT22;3822;48.784;9.174;2022-07-12T04:59:26;20.40;81.50
7562;DHT22;3822;48.784;9.174;2022-07-12T05:01:53;20.40;81.60
7562;DHT22;3822;48.784;9.174;2022-07-12T05:04:19;20.40;81.70
7562;DHT22;3822;48.784;9.174;2022-07-12T05:06:45;20.40;81.80
7562;DHT22;3822;48.784;9.174;2022-07-12T05:09:13;20.40;81.80
7562;DHT22;3822;48.784;9.174;2022-07-12T05:11:40;20.50;82.00
7562;DHT22;3822;48.784;9.174;2022-07-12T05:14:06;20.40;82.00
7562;DHT22;3822;48.784;9.174;2022-07-12T05:16:32;20.40;82.00
7562;DHT22;3822;48.784;9.174;2022-07-12T05:18:59;20.40;82.00
7562;DHT22;3822;48.784;9.174;2022-07-12T05:21:27;20.40;82.10
7562;DHT22;3822;48.784;9.174;2022-07-12T05:23:54;20.50;82.10
7562;DHT22;3822;48.784;9.174;2022-07-12T05:26:20;20.50;82.20
7562;DHT22;3822;48.784;9.174;2022-07-12T05:28:47;20.60;82.40
7562;DHT22;3822;48.784;9.174;2022-07-12T05:31:13;20.70;82.50
7562;DHT22;3822;48.784;9.174;2022-07-12T05:33:40;20.70;82.30
7562;DHT22;3822;48.784;9.174;2022-07-12T05:36:07;20.70;82.30
7562;DHT22;3822;48.784;9.174;2022-07-12T05:38:33;20.80;82.20
7562;DHT22;3822;48.784;9.174;2022-07-12T05:41:00;20.80;82.00
7562;DHT22;3822;48.784;9.174;2022-07-12T05:43:27;20.90;82.00
7562;DHT22;3822;48.784;9.174;2022-07-12T05:45:53;21.00;81.90
7562;DHT22;3822;48.784;9.174;2022-07-12T05:48:20;21.00;81.60
7562;DHT22;3822;48.784;9.174;2022-07-12T05:50:46;21.00;81.40
7562;DHT22;3822;48.784;9.174;2022-07-12T05:53:13;21.00;81.40
7562;DHT22;3822;48.784;9.174;2022-07-12T05:55:51;20.90;81.40
7562;DHT22;3822;48.784;9.174;2022-07-12T05:58:19;21.00;81.60
7562;DHT22;3822;48.784;9.174;2022-07-12T06:00:47;21.00;81.50
7562;DHT22;3822;48.784;9.174;2022-07-12T06:03:14;21.00;81.50
7562;DHT22;3822;48.784;9.174;2022-07-12T06:05:41;21.00;81.60
7562;DHT22;3822;48.784;9.174;2022-07-12T06:08:08;21.00;81.50
7562;DHT22;3822;48.784;9.174;2022-07-12T06:10:35;21.10;81.50
7562;DHT22;3822;48.784;9.174;2022-07-12T06:13:02;21.20;81.40
7562;DHT22;3822;48.784;9.174;2022-07-12T06:15:28;21.20;81.20
7562;DHT22;3822;48.784;9.174;2022-07-12T06:17:55;21.30;81.10
7562;DHT22;3822;48.784;9.174;2022-07-12T06:20:22;21.40;80.90
7562;DHT22;3822;48.784;9.174;2022-07-12T06:22:49;21.40;80.30
7562;DHT22;3822;48.784;9.174;2022-07-12T06:25:15;21.50;80.00
7562;DHT22;3822;48.784;9.174;2022-07-12T06:27:45;21.50;79.80
7562;DHT22;3822;48.784;9.174;2022-07-12T06:30:21;21.60;79.40
7562;DHT22;3822;48.784;9.174;2022-07-12T06:32:48;21.70;79.20
7562;DHT22;3822;48.784;9.174;2022-07-12T06:35:15;21.80;78.60
7562;DHT22;3822;48.784;9.174;2022-07-12T06:37:42;21.80;77.70
7562;DHT22;3822;48.784;9.174;2022-07-12T06:40:09;21.80;77.50
7562;DHT22;3822;48.784;9.174;2022-07-12T06:42:37;21.90;77.20
7562;DHT22;3822;48.784;9.174;2022-07-12T06:45:04;21.90;77.00
7562;DHT22;3822;48.784;9.174;2022-07-12T06:47:31;21.90;76.80
7562;DHT22;3822;48.784;9.174;2022-07-12T06:49:58;22.00;76.10
7562;DHT22;3822;48.784;9.174;2022-07-12T06:52:24;22.00;75.70
7562;DHT22;3822;48.784;9.174;2022-07-12T06:54:51;22.10;75.30
7562;DHT22;3822;48.784;9.174;2022-07-12T06:57:17;22.20;74.90
7562;DHT22;3822;48.784;9.174;2022-07-12T06:59:44;22.30;74.60
7562;DHT22;3822;48.784;9.174;2022-07-12T07:02:11;22.30;74.40
7562;DHT22;3822;48.784;9.174;2022-07-12T07:04:37;22.40;74.10
7562;DHT22;3822;48.784;9.174;2022-07-12T07:07:05;22.50;73.90
7562;DHT22;3822;48.784;9.174;2022-07-12T07:09:31;22.50;73.40
7562;DHT22;3822;48.784;9.174;2022-07-12T07:11:58;22.60;73.30
7562;DHT22;3822;48.784;9.174;2022-07-12T07:14:24;22.60;73.00
7562;DHT22;3822;48.784;9.174;2022-07-12T07:16:53;22.70;72.90
7562;DHT22;3822;48.784;9.174;2022-07-12T07:19:20;22.80;72.70
7562;DHT22;3822;48.784;9.174;2022-07-12T07:21:48;22.90;72.20
7562;DHT22;3822;48.784;9.174;2022-07-12T07:24:15;23.00;72.00
7562;DHT22;3822;48.784;9.174;2022-07-12T07:26:42;23.00;71.80
7562;DHT22;3822;48.784;9.174;2022-07-12T07:29:08;23.10;71.80
7562;DHT22;3822;48.784;9.174;2022-07-12T07:31:53;23.20;71.60
7562;DHT22;3822;48.784;9.174;2022-07-12T07:34:20;23.20;71.10
7562;DHT22;3822;48.784;9.174;2022-07-12T07:36:48;23.30;70.10
7562;DHT22;3822;48.784;9.174;2022-07-12T07:39:14;23.30;70.00
7562;DHT22;3822;48.784;9.174;2022-07-12T07:41:41;23.30;69.50
7562;DHT22;3822;48.784;9.174;2022-07-12T07:44:07;23.40;69.20
7562;DHT22;3822;48.784;9.174;2022-07-12T07:46:34;23.40;69.20
7562;DHT22;3822;48.784;9.174;2022-07-12T07:49:00;23.50;68.30
7562;DHT22;3822;48.784;9.174;2022-07-12T07:51:27;23.50;68.00
7562;DHT22;3822;48.784;9.174;2022-07-12T07:53:54;23.50;68.30
7562;DHT22;3822;48.784;9.174;2022-07-12T07:56:20;23.50;67.80
7562;DHT22;3822;48.784;9.174;2022-07-12T07:58:47;23.40;67.60
7562;DHT22;3822;48.784;9.174;2022-07-12T08:01:13;23.50;67.90
7562;DHT22;3822;48.784;9.174;2022-07-12T08:03:40;23.50;64.60
7562;DHT22;3822;48.784;9.174;2022-07-12T08:06:06;23.50;65.10
7562;DHT22;3822;48.784;9.174;2022-07-12T08:08:33;23.50;64.40
7562;DHT22;3822;48.784;9.174;2022-07-12T08:10:59;23.60;64.40
7562;DHT22;3822;48.784;9.174;2022-07-12T08:13:26;23.60;64.60
7562;DHT22;3822;48.784;9.174;2022-07-12T08:15:52;23.70;63.60
7562;DHT22;3822;48.784;9.174;2022-07-12T08:18:19;23.60;63.20
7562;DHT22;3822;48.784;9.174;2022-07-12T08:20:45;23.70;63.80
7562;DHT22;3822;48.784;9.174;2022-07-12T08:23:13;23.70;63.60
7562;DHT22;3822;48.784;9.174;2022-07-12T08:25:40;23.80;63.70
7562;DHT22;3822;48.784;9.174;2022-07-12T08:28:06;23.80;63.80
7562;DHT22;3822;48.784;9.174;2022-07-12T08:30:33;23.90;64.00
7562;DHT22;3822;48.784;9.174;2022-07-12T08:33:00;23.90;63.90
7562;DHT22;3822;48.784;9.174;2022-07-12T08:35:27;23.90;63.50
7562;DHT22;3822;48.784;9.174;2022-07-12T08:37:54;23.90;62.60
7562;DHT22;3822;48.784;9.174;2022-07-12T08:40:20;23.90;62.90
7562;DHT22;3822;48.784;9.174;2022-07-12T08:42:48;23.90;63.20
7562;DHT22;3822;48.784;9.174;2022-07-12T08:45:14;24.00;63.40
7562;DHT22;3822;48.784;9.174;2022-07-12T08:47:41;24.00;63.00
7562;DHT22;3822;48.784;9.174;2022-07-12T08:50:18;24.00;62.30
7562;DHT22;3822;48.784;9.174;2022-07-12T08:52:51;24.10;62.20
7562;DHT22;3822;48.784;9.174;2022-07-12T08:55:20;24.10;62.20
7562;DHT22;3822;48.784;9.174;2022-07-12T08:57:52;24.10;62.20
7562;DHT22;3822;48.784;9.174;2022-07-12T09:00:21;24.10;62.10
7562;DHT22;3822;48.784;9.174;2022-07-12T09:02:57;24.10;62.10
7562;DHT22;3822;48.784;9.174;2022-07-12T09:05:28;24.10;62.40
7562;DHT22;3822;48.784;9.174;2022-07-12T09:08:14;24.10;62.80
7562;DHT22;3822;48.784;9.174;2022-07-12T09:13:17;24.20;61.40
7562;DHT22;3822;48.784;9.174;2022-07-12T09:15:44;24.20;61.50
7562;DHT22;3822;48.784;9.174;2022-07-12T09:18:13;24.20;60.90
7562;DHT22;3822;48.784;9.174;2022-07-12T09:20:42;24.20;61.20
7562;DHT22;3822;48.784;9.174;2022-07-12T09:23:12;24.30;60.80
7562;DHT22;3822;48.784;9.174;2022-07-12T09:25:39;24.20;60.50
7562;DHT22;3822;48.784;9.174;2022-07-12T09:28:10;24.20;60.30
7562;DHT22;3822;48.784;9.174;2022-07-12T09:30:48;24.20;60.60
7562;DHT22;3822;48.784;9.174;2022-07-12T09:33:18;24.20;60.70
7562;DHT22;3822;48.784;9.174;2022-07-12T09:36:04;24.20;60.60
7562;DHT22;3822;48.784;9.174;2022-07-12T09:41:21;24.20;60.70
7562;DHT22;3822;48.784;9.174;2022-07-12T09:43:49;24.20;60.60
7562;DHT22;3822;48.784;9.174;2022-07-12T09:46:17;24.20;60.10
7562;DHT22;3822;48.784;9.174;2022-07-12T09:48:45;24.20;60.00
7562;DHT22;3822;48.784;9.174;2022-07-12T09:51:16;24.20;60.10
7562;DHT22;3822;48.784;9.174;2022-07-12T09:53:48;24.20;60.00
7562;DHT22;3822;48.784;9.174;2022-07-12T09:56:16;24.30;60.30
7562;DHT22;3822;48.784;9.174;2022-07-12T09:58:53;24.20;60.20
7562;DHT22;3822;48.784;9.174;2022-07-12T10:01:21;24.30;59.90
7562;DHT22;3822;48.784;9.174;2022-07-12T10:03:51;24.30;59.80
7562;DHT22;3822;48.784;9.174;2022-07-12T10:06:36;24.30;59.90
7562;DHT22;3822;48.784;9.174;2022-07-12T10:09:04;24.40;60.10
7562;DHT22;3822;48.784;9.174;2022-07-12T10:11:32;24.40;59.90
7562;DHT22;3822;48.784;9.174;2022-07-12T10:13:59;24.40;59.40
7562;DHT22;3822;48.784;9.174;2022-07-12T10:16:27;24.40;59.20
7562;DHT22;3822;48.784;9.174;2022-07-12T10:21:59;24.40;59.40
7562;DHT22;3822;48.784;9.174;2022-07-12T10:29:41;24.60;59.10
7562;DHT22;3822;48.784;9.174;2022-07-12T10:32:30;24.60;59.00
7562;DHT22;3822;48.784;9.174;2022-07-12T10:35:27;24.60;58.60
7562;DHT22;3822;48.784;9.174;2022-07-12T10:40:39;24.70;58.80
7562;DHT22;3822;48.784;9.174;2022-07-12T10:45:41;24.70;58.70
7562;DHT22;3822;48.784;9.174;2022-07-12T10:58:31;25.00;58.10
7562;DHT22;3822;48.784;9.174;2022-07-12T11:01:04;24.90;57.90
7562;DHT22;3822;48.784;9.174;2022-07-12T11:03:38;25.00;57.80
7562;DHT22;3822;48.784;9.174;2022-07-12T11:06:10;25.00;57.60
7562;DHT22;3822;48.784;9.174;2022-07-12T11:11:34;25.10;57.90
7562;DHT22;3822;48.784;9.174;2022-07-12T11:14:12;25.10;57.70
7562;DHT22;3822;48.784;9.174;2022-07-12T11:16:47;25.20;57.20
7562;DHT22;3822;48.784;9.174;2022-07-12T11:19:35;25.20;56.90
7562;DHT22;3822;48.784;9.174;2022-07-12T11:22:02;25.30;56.70
7562;DHT22;3822;48.784;9.174;2022-07-12T11:24:31;25.30;56.80
7562;DHT22;3822;48.784;9.174;2022-07-12T11:26:59;25.40;56.70
7562;DHT22;3822;48.784;9.174;2022-07-12T11:29:26;25.40;56.60
7562;DHT22;3822;48.784;9.174;2022-07-12T11:32:03;25.50;56.60
7562;DHT22;3822;48.784;9.174;2022-07-12T11:34:34;25.60;56.40
7562;DHT22;3822;48.784;9.174;2022-07-12T11:37:01;25.50;55.60
7562;DHT22;3822;48.784;9.174;2022-07-12T11:39:35;25.70;55.40
7562;DHT22;3822;48.784;9.174;2022-07-12T11:42:04;25.80;55.60
7562;DHT22;3822;48.784;9.174;2022-07-12T11:44:50;25.90;55.40
7562;DHT22;3822;48.784;9.174;2022-07-12T11:47:19;26.00;55.20
7562;DHT22;3822;48.784;9.174;2022-07-12T11:49:51;26.00;54.40
7562;DHT22;3822;48.784;9.174;2022-07-12T11:52:20;26.00;54.00
7562;DHT22;3822;48.784;9.174;2022-07-12T11:54:50;26.10;54.00
7562;DHT22;3822;48.784;9.174;2022-07-12T11:57:22;26.20;54.00
7562;DHT22;3822;48.784;9.174;2022-07-12T11:59:52;26.20;53.30
7562;DHT22;3822;48.784;9.174;2022-07-12T12:02:20;26.30;52.50
7562;DHT22;3822;48.784;9.174;2022-07-12T12:04:53;26.30;52.20
7562;DHT22;3822;48.784;9.174;2022-07-12T12:07:22;26.40;52.20
7562;DHT22;3822;48.784;9.174;2022-07-12T12:15:12;26.60;52.10
7562;DHT22;3822;48.784;9.174;2022-07-12T12:22:52;27.00;51.20
7562;DHT22;3822;48.784;9.174;2022-07-12T12:25:23;27.10;50.60
7562;DHT22;3822;48.784;9.174;2022-07-12T12:27:59;27.20;50.80
7562;DHT22;3822;48.784;9.174;2022-07-12T12:30:28;27.30;50.80
7562;DHT22;3822;48.784;9.174;2022-07-12T12:33:01;27.40;50.10
7562;DHT22;3822;48.784;9.174;2022-07-12T12:35:37;27.40;49.30
7562;DHT22;3822;48.784;9.174;2022-07-12T12:38:15;27.50;48.80
7562;DHT22;3822;48.784;9.174;2022-07-12T12:40:50;27.60;49.80
7562;DHT22;3822;48.784;9.174;2022-07-12T12:43:19;27.70;49.50
7562;DHT22;3822;48.784;9.174;2022-07-12T12:45:51;27.80;49.40
7562;DHT22;3822;48.784;9.174;2022-07-12T12:48:31;27.80;49.10
7562;DHT22;3822;48.784;9.174;2022-07-12T12:51:06;27.90;48.60
7562;DHT22;3822;48.784;9.174;2022-07-12T12:53:35;28.00;48.60
7562;DHT22;3822;48.784;9.174;2022-07-12T12:56:10;28.00;48.30
7562;DHT22;3822;48.784;9.174;2022-07-12T12:58:39;28.10;47.60
7562;DHT22;3822;48.784;9.174;2022-07-12T13:01:06;28.20;47.40
7562;DHT22;3822;48.784;9.174;2022-07-12T13:03:42;28.20;47.80
7562;DHT22;3822;48.784;9.174;2022-07-12T13:06:08;28.30;47.70
7562;DHT22;3822;48.784;9.174;2022-07-12T13:08:35;28.40;46.50
7562;DHT22;3822;48.784;9.174;2022-07-12T13:11:01;28.40;46.80
7562;DHT22;3822;48.784;9.174;2022-07-12T13:13:46;27.60;46.20
7562;DHT22;3822;48.784;9.174;2022-07-12T13:16:12;28.50;47.00
7562;DHT22;3822;48.784;9.174;2022-07-12T13:18:39;28.60;47.20
7562;DHT22;3822;48.784;9.174;2022-07-12T13:21:05;28.70;47.00
7562;DHT22;3822;48.784;9.174;2022-07-12T13:23:32;28.80;46.90
7562;DHT22;3822;48.784;9.174;2022-07-12T13:25:59;29.30;46.30
7562;DHT22;3822;48.784;9.174;2022-07-12T13:28:25;28.90;45.70
7562;DHT22;3822;48.784;9.174;2022-07-12T13:30:52;28.90;45.80
7562;DHT22;3822;48.784;9.174;2022-07-12T13:33:21;29.00;45.80
7562;DHT22;3822;48.784;9.174;2022-07-12T13:35:48;29.10;47.00
7562;DHT22;3822;48.784;9.174;2022-07-12T13:38:14;29.20;45.70
7562;DHT22;3822;48.784;9.174;2022-07-12T13:40:41;29.40;45.70
7562;DHT22;3822;48.784;9.174;2022-07-12T13:43:07;29.50;45.10
7562;DHT22;3822;48.784;9.174;2022-07-12T13:45:34;29.50;44.80
7562;DHT22;3822;48.784;9.174;2022-07-12T13:48:01;29.60;45.20
7562;DHT22;3822;48.784;9.174;2022-07-12T13:50:28;29.70;44.90
7562;DHT22;3822;48.784;9.174;2022-07-12T13:52:56;29.80;44.40
7562;DHT22;3822;48.784;9.174;2022-07-12T13:55:25;29.90;44.60
7562;DHT22;3822;48.784;9.174;2022-07-12T13:57:52;30.00;44.00
7562;DHT22;3822;48.784;9.174;2022-07-12T14:00:18;30.20;43.20
7562;DHT22;3822;48.784;9.174;2022-07-12T14:02:47;30.20;42.20
7562;DHT22;3822;48.784;9.174;2022-07-12T14:05:15;30.20;42.20
7562;DHT22;3822;48.784;9.174;2022-07-12T14:07:43;30.30;41.80
7562;DHT22;3822;48.784;9.174;2022-07-12T14:10:11;30.30;41.00
7562;DHT22;3822;48.784;9.174;2022-07-12T14:12:39;30.40;41.00
7562;DHT22;3822;48.784;9.174;2022-07-12T14:15:07;30.50;41.30
7562;DHT22;3822;48.784;9.174;2022-07-12T14:18:04;30.50;41.30
7562;DHT22;3822;48.784;9.174;2022-07-12T14:20:33;30.70;41.60
7562;DHT22;3822;48.784;9.174;2022-07-12T14:23:01;30.70;41.20
7562;DHT22;3822;48.784;9.174;2022-07-12T14:25:27;30.80;41.70
7562;DHT22;3822;48.784;9.174;2022-07-12T14:27:54;31.00;41.50
7562;DHT22;3822;48.784;9.174;2022-07-12T14:30:21;31.10;41.40
7562;DHT22;3822;48.784;9.174;2022-07-12T14:32:47;31.20;40.20
7562;DHT22;3822;48.784;9.174;2022-07-12T14:35:14;31.30;40.40
7562;DHT22;3822;48.784;9.174;2022-07-12T14:37:41;31.30;40.80
7562;DHT22;3822;48.784;9.174;2022-07-12T14:40:08;31.40;41.20
7562;DHT22;3822;48.784;9.174;2022-07-12T14:42:36;31.50;39.70
7562;DHT22;3822;48.784;9.174;2022-07-12T14:45:03;31.50;39.20
7562;DHT22;3822;48.784;9.174;2022-07-12T14:47:29;31.50;39.60
7562;DHT22;3822;48.784;9.174;2022-07-12T14:49:56;31.50;39.50
7562;DHT22;3822;48.784;9.174;2022-07-12T14:52:23;31.60;40.10
7562;DHT22;3822;48.784;9.174;2022-07-12T14:54:50;31.60;39.10
7562;DHT22;3822;48.784;9.174;2022-07-12T14:57:17;31.70;39.60
7562;DHT22;3822;48.784;9.174;2022-07-12T14:59:44;31.80;39.40
7562;DHT22;3822;48.784;9.174;2022-07-12T15:02:10;31.90;39.60
7562;DHT22;3822;48.784;9.174;2022-07-12T15:04:40;32.00;39.80
7562;DHT22;3822;48.784;9.174;2022-07-12T15:07:06;32.20;39.80
7562;DHT22;3822;48.784;9.174;2022-07-12T15:09:33;32.30;39.20
7562;DHT22;3822;48.784;9.174;2022-07-12T15:12:00;32.40;38.70
7562;DHT22;3822;48.784;9.174;2022-07-12T15:14:27;32.50;38.90
7562;DHT22;3822;48.784;9.174;2022-07-12T15:16:54;32.50;36.90
7562;DHT22;3822;48.784;9.174;2022-07-12T15:19:20;32.50;37.20
7562;DHT22;3822;48.784;9.174;2022-07-12T15:21:47;32.50;37.90
7562;DHT22;3822;48.784;9.174;2022-07-12T15:24:13;32.60;38.20
7562;DHT22;3822;48.784;9.174;2022-07-12T15:26:40;32.70;37.80
7562;DHT22;3822;48.784;9.174;2022-07-12T15:29:06;32.90;37.30
7562;DHT22;3822;48.784;9.174;2022-07-12T15:31:33;33.00;37.50
7562;DHT22;3822;48.784;9.174;2022-07-12T15:34:00;33.00;36.30
7562;DHT22;3822;48.784;9.174;2022-07-12T15:36:27;33.10;36.00
7562;DHT22;3822;48.784;9.174;2022-07-12T15:38:54;33.00;35.80
7562;DHT22;3822;48.784;9.174;2022-07-12T15:41:20;33.00;37.20
7562;DHT22;3822;48.784;9.174;2022-07-12T15:43:47;33.00;35.80
7562;DHT22;3822;48.784;9.174;2022-07-12T15:46:14;33.00;35.70
7562;DHT22;3822;48.784;9.174;2022-07-12T15:48:41;33.10;34.60
7562;DHT22;3822;48.784;9.174;2022-07-12T15:51:07;33.00;34.60
7562;DHT22;3822;48.784;9.174;2022-07-12T15:53:34;33.10;35.00
7562;DHT22;3822;48.784;9.174;2022-07-12T15:56:07;33.10;33.80
7562;DHT22;3822;48.784;9.174;2022-07-12T15:58:36;33.20;34.40
7562;DHT22;3822;48.784;9.174;2022-07-12T16:01:04;33.30;34.90
7562;DHT22;3822;48.784;9.174;2022-07-12T16:03:32;33.50;34.80
7562;DHT22;3822;48.784;9.174;2022-07-12T16:06:00;33.40;33.70
7562;DHT22;3822;48.784;9.174;2022-07-12T16:08:28;33.50;34.30
7562;DHT22;3822;48.784;9.174;2022-07-12T16:10:56;33.60;34.40
7562;DHT22;3822;48.784;9.174;2022-07-12T16:13:24;33.80;33.70
7562;DHT22;3822;48.784;9.174;2022-07-12T16:15:50;33.80;33.20
7562;DHT22;3822;48.784;9.174;2022-07-12T16:18:18;33.80;33.40
7562;DHT22;3822;48.784;9.174;2022-07-12T16:20:45;33.90;33.40
7562;DHT22;3822;48.784;9.174;2022-07-12T16:23:14;33.90;32.60
7562;DHT22;3822;48.784;9.174;2022-07-12T16:25:41;33.80;31.90
7562;DHT22;3822;48.784;9.174;2022-07-12T16:28:08;33.80;32.70
7562;DHT22;3822;48.784;9.174;2022-07-12T16:30:35;33.80;33.10
7562;DHT22;3822;48.784;9.174;2022-07-12T16:33:03;33.90;33.30
7562;DHT22;3822;48.784;9.174;2022-07-12T16:35:30;34.00;33.20
7562;DHT22;3822;48.784;9.174;2022-07-12T16:37:57;34.10;33.20
7562;DHT22;3822;48.784;9.174;2022-07-12T16:40:23;34.20;33.10
7562;DHT22;3822;48.784;9.174;2022-07-12T16:42:54;34.40;33.00
7562;DHT22;3822;48.784;9.174;2022-07-12T16:45:21;34.40;32.70
7562;DHT22;3822;48.784;9.174;2022-07-12T16:47:47;34.50;32.60
7562;DHT22;3822;48.784;9.174;2022-07-12T16:50:14;34.60;32.50